Time;durP1;ratioP1;P1;durP2;ratioP2;P2;SDS_P1;SDS_P2;PMS_P1;PMS_P2;Temp;Humidity;BMP_temperature;BMP_pressure;BME280_temperature;BME280_humidity;BME280_pressure;Samples;Min_cycle;Max_cycle;Signal;HPM_P1;HPM_P2
2022/04/26 03:36:46;;;;;;;43.37;26.47;;;;;;;;;;5073537;28;20399;-51
2022/04/26 03:39:12;;;;;;;46.00;26.70;;;;;;;;;;5074151;28;20400;-52
2022/04/26 03:41:38;;;;;;;39.57;25.70;;;;;;;;;;5073552;28;20460;-51
2022/04/26 03:44:04;;;;;;;47.47;27.30;;;;;;;;;;5074563;28;20452;-51
2022/04/26 03:46:30;;;;;;;40.40;24.73;;;;;;;;;;5074201;28;20891;-51
2022/04/26 03:48:56;;;;;;;43.13;25.00;;;;;;;;;;5074519;28;20482;-52
2022/04/26 03:51:22;;;;;;;46.50;28.00;;;;;;;;;;5073236;28;20786;-51
2022/04/26 03:53:48;;;;;;;41.67;25.20;;;;;;;;;;5073946;28;20402;-52
2022/04/26 03:56:14;;;;;;;42.70;26.50;;;;;;;;;;5074056;28;20589;-52
2022/04/26 03:58:40;;;;;;;42.30;24.63;;;;;;;;;;5073984;28;20401;-51
2022/04/26 04:01:06;;;;;;;39.87;24.67;;;;;;;;;;5073248;28;20411;-52
2022/04/26 04:03:32;;;;;;;45.60;26.43;;;;;;;;;;5073870;28;20954;-51
2022/04/26 04:05:59;;;;;;;44.53;24.77;;;;;;;;;;5073641;28;20391;-51
2022/04/26 04:08:25;;;;;;;47.53;26.23;;;;;;;;;;5072941;28;20502;-51
2022/04/26 04:10:51;;;;;;;42.40;26.10;;;;;;;;;;5072759;28;20562;-51
2022/04/26 04:13:18;;;;;;;42.40;25.90;;;;;;;;;;5073004;28;20428;-51
2022/04/26 04:15:46;;;;;;;41.70;26.07;;;;;;;;;;5073121;28;20904;-51
2022/04/26 04:20:58;;;;;;;43.50;26.70;;;;;;;;;;5050746;28;20411;-51
2022/04/26 04:23:24;;;;;;;46.60;26.40;;;;;;;;;;5072842;28;20463;-52
2022/04/26 04:25:50;;;;;;;51.87;27.67;;;;;;;;;;5072989;28;20483;-51
2022/04/26 04:28:16;;;;;;;46.70;28.33;;;;;;;;;;5072679;28;20396;-52
2022/04/26 04:30:42;;;;;;;49.33;26.53;;;;;;;;;;5072826;28;20401;-51
2022/04/26 04:33:09;;;;;;;47.60;25.10;;;;;;;;;;5072078;28;20432;-51
2022/04/26 04:35:34;;;;;;;43.57;24.80;;;;;;;;;;5072853;28;20479;-52
2022/04/26 04:38:00;;;;;;;43.67;25.87;;;;;;;;;;5072788;28;20494;-51
2022/04/26 04:40:26;;;;;;;45.50;25.10;;;;;;;;;;5073107;28;20415;-52
2022/04/26 04:42:52;;;;;;;49.73;27.70;;;;;;;;;;5072398;28;20885;-51
2022/04/26 04:45:18;;;;;;;58.27;27.80;;;;;;;;;;5072884;28;20400;-51
2022/04/26 04:47:45;;;;;;;42.37;23.40;;;;;;;;;;5072900;28;20399;-51
2022/04/26 04:50:11;;;;;;;44.53;21.27;;;;;;;;;;5073098;28;20415;-51
2022/04/26 04:52:37;;;;;;;32.90;21.00;;;;;;;;;;5072056;28;20436;-51
2022/04/26 04:55:03;;;;;;;32.37;20.87;;;;;;;;;;5072820;28;20753;-51
2022/04/26 04:57:29;;;;;;;30.87;19.00;;;;;;;;;;5072742;28;20403;-51
2022/04/26 04:59:55;;;;;;;35.10;18.83;;;;;;;;;;5072642;28;20392;-51
2022/04/26 05:02:22;;;;;;;31.47;20.00;;;;;;;;;;5071839;28;20413;-51
2022/04/26 05:04:49;;;;;;;33.30;19.37;;;;;;;;;;5072539;28;20467;-51
2022/04/26 05:07:14;;;;;;;28.10;16.23;;;;;;;;;;5072293;28;20479;-51
2022/04/26 05:09:41;;;;;;;18.67;14.67;;;;;;;;;;5072448;28;20495;-51
2022/04/26 05:12:08;;;;;;;22.03;14.40;;;;;;;;;;5071951;28;20427;-51
2022/04/26 05:14:34;;;;;;;20.57;15.33;;;;;;;;;;5072482;28;20774;-52
2022/04/26 05:17:00;;;;;;;21.33;13.87;;;;;;;;;;5072395;28;20411;-51
2022/04/26 05:19:26;;;;;;;24.87;13.20;;;;;;;;;;5072321;28;20500;-51
2022/04/26 05:21:52;;;;;;;19.10;13.00;;;;;;;;;;5071632;28;20426;-51
2022/04/26 05:27:03;;;;;;;17.70;13.03;;;;;;;;;;5072328;28;20399;-51
2022/04/26 05:29:29;;;;;;;17.13;13.00;;;;;;;;;;5072043;28;20389;-51
2022/04/26 05:31:56;;;;;;;17.27;13.80;;;;;;;;;;5071514;28;20499;-51
2022/04/26 05:34:22;;;;;;;16.67;11.63;;;;;;;;;;5072156;28;20459;-51
2022/04/26 05:36:48;;;;;;;17.70;11.70;;;;;;;;;;5072082;28;20401;-52
2022/04/26 05:39:14;;;;;;;18.67;12.30;;;;;;;;;;5071977;28;20407;-52
2022/04/26 05:41:40;;;;;;;16.17;12.30;;;;;;;;;;5071797;28;20446;-52
2022/04/26 05:44:06;;;;;;;14.90;11.10;;;;;;;;;;5071919;28;20447;-52
2022/04/26 05:46:32;;;;;;;14.47;11.13;;;;;;;;;;5072016;28;20498;-51
2022/04/26 05:48:58;;;;;;;17.40;12.60;;;;;;;;;;5071906;28;20407;-51
2022/04/26 05:51:24;;;;;;;15.87;11.37;;;;;;;;;;5071138;28;20439;-51
2022/04/26 05:53:50;;;;;;;17.60;12.30;;;;;;;;;;5072134;28;20821;-51
2022/04/26 05:56:16;;;;;;;16.13;11.83;;;;;;;;;;5071940;28;20778;-51
2022/04/26 05:58:42;;;;;;;12.23;9.87;;;;;;;;;;5072281;28;20435;-51
2022/04/26 06:01:07;;;;;;;12.30;10.50;;;;;;;;;;5070768;28;20449;-51
2022/04/26 06:03:34;;;;;;;22.07;12.17;;;;;;;;;;5071714;28;20528;-51
2022/04/26 06:06:00;;;;;;;14.03;10.80;;;;;;;;;;5071797;28;20404;-51
2022/04/26 06:08:26;;;;;;;13.87;10.37;;;;;;;;;;5071728;28;20919;-51
2022/04/26 06:10:52;;;;;;;11.10;9.90;;;;;;;;;;5071061;28;20403;-51
2022/04/26 06:13:18;;;;;;;15.50;11.07;;;;;;;;;;5071564;28;20441;-51
2022/04/26 06:15:44;;;;;;;16.10;10.57;;;;;;;;;;5071915;28;21053;-51
2022/04/26 06:18:10;;;;;;;11.40;9.53;;;;;;;;;;5071695;28;20888;-52
2022/04/26 06:20:36;;;;;;;12.13;9.37;;;;;;;;;;5071503;28;20404;-51
2022/04/26 06:23:02;;;;;;;10.63;8.83;;;;;;;;;;5070898;28;20462;-51
2022/04/26 06:25:28;;;;;;;14.90;10.90;;;;;;;;;;5071646;28;20450;-52
2022/04/26 06:27:54;;;;;;;15.60;11.40;;;;;;;;;;5071551;28;20409;-51
2022/04/26 06:30:20;;;;;;;19.80;11.33;;;;;;;;;;5071491;28;20400;-51
2022/04/26 06:32:46;;;;;;;16.00;10.93;;;;;;;;;;5069919;28;20547;-52
2022/04/26 06:35:12;;;;;;;13.10;10.80;;;;;;;;;;5071932;28;20433;-51
2022/04/26 06:37:38;;;;;;;13.17;9.93;;;;;;;;;;5071749;28;20449;-51
2022/04/26 06:40:05;;;;;;;15.53;11.37;;;;;;;;;;5071469;28;20812;-51
2022/04/26 06:42:31;;;;;;;15.30;11.33;;;;;;;;;;5070660;28;20416;-51
2022/04/26 06:44:57;;;;;;;13.63;10.27;;;;;;;;;;5071461;28;20741;-52
2022/04/26 06:47:22;;;;;;;15.83;10.83;;;;;;;;;;5071386;28;20436;-51
2022/04/26 06:49:48;;;;;;;18.50;12.53;;;;;;;;;;5071237;28;20402;-52
2022/04/26 06:52:14;;;;;;;14.50;11.53;;;;;;;;;;5070544;28;20434;-51
2022/04/26 06:54:40;;;;;;;15.70;11.40;;;;;;;;;;5071336;28;20763;-51
2022/04/26 06:57:06;;;;;;;20.30;13.17;;;;;;;;;;5071333;28;20450;-51
2022/04/26 06:59:32;;;;;;;20.30;13.00;;;;;;;;;;5071935;28;20930;-52
2022/04/26 07:01:58;;;;;;;14.97;11.47;;;;;;;;;;5070447;28;20460;-52
2022/04/26 07:04:24;;;;;;;16.70;11.70;;;;;;;;;;5070970;28;20450;-51
2022/04/26 07:06:50;;;;;;;18.97;12.90;;;;;;;;;;5071275;28;20407;-51
2022/04/26 07:09:16;;;;;;;18.30;13.40;;;;;;;;;;5070666;28;20626;-52
2022/04/26 07:11:42;;;;;;;18.23;12.30;;;;;;;;;;5069966;28;20416;-52
2022/04/26 07:14:09;;;;;;;25.20;13.47;;;;;;;;;;5071061;28;20417;-52
2022/04/26 07:16:35;;;;;;;22.50;13.90;;;;;;;;;;5070084;28;20405;-52
2022/04/26 07:19:01;;;;;;;24.23;15.47;;;;;;;;;;5074460;28;20462;-52
2022/04/26 07:21:27;;;;;;;30.43;16.43;;;;;;;;;;5074140;28;20436;-50
2022/04/26 07:23:53;;;;;;;35.10;15.70;;;;;;;;;;5074530;28;20455;-53
2022/04/26 07:26:19;;;;;;;29.37;17.00;;;;;;;;;;5074857;28;20396;-52
2022/04/26 07:28:45;;;;;;;36.57;20.10;;;;;;;;;;5074569;28;20409;-53
2022/04/26 07:31:11;;;;;;;44.47;21.80;;;;;;;;;;5073823;28;20389;-52
2022/04/26 07:36:22;;;;;;;52.10;21.80;;;;;;;;;;5072865;28;20403;-52
2022/04/26 07:38:49;;;;;;;44.20;26.30;;;;;;;;;;5073168;28;20759;-53
2022/04/26 07:41:15;;;;;;;47.13;26.20;;;;;;;;;;5072447;28;20811;-52
2022/04/26 07:43:41;;;;;;;48.00;26.47;;;;;;;;;;5074206;28;20448;-51
2022/04/26 07:46:07;;;;;;;54.57;29.03;;;;;;;;;;5074176;28;20400;-51
2022/04/26 07:48:34;;;;;;;48.33;26.93;;;;;;;;;;5074085;28;20744;-51
2022/04/26 07:51:00;;;;;;;52.50;28.53;;;;;;;;;;5073428;28;20406;-52
2022/04/26 07:53:27;;;;;;;53.97;29.60;;;;;;;;;;5074166;28;20485;-51
2022/04/26 07:55:52;;;;;;;51.87;28.03;;;;;;;;;;5074100;28;20476;-53
2022/04/26 07:58:19;;;;;;;50.77;28.40;;;;;;;;;;5073924;28;20442;-52
2022/04/26 08:00:45;;;;;;;53.00;29.70;;;;;;;;;;5073514;28;20404;-53
2022/04/26 08:03:11;;;;;;;50.30;28.67;;;;;;;;;;5073809;28;20819;-51
2022/04/26 08:05:37;;;;;;;47.80;26.67;;;;;;;;;;5073918;28;20430;-51
2022/04/26 08:08:03;;;;;;;55.37;31.70;;;;;;;;;;5073877;28;20789;-50
2022/04/26 08:10:28;;;;;;;48.40;29.43;;;;;;;;;;5073742;28;20582;-54
2022/04/26 08:12:54;;;;;;;51.63;30.57;;;;;;;;;;5073069;28;20981;-53
2022/04/26 08:15:20;;;;;;;51.63;29.93;;;;;;;;;;5073617;28;20884;-52
2022/04/26 08:17:48;;;;;;;54.30;30.60;;;;;;;;;;5073614;28;20412;-53
2022/04/26 08:20:15;;;;;;;52.30;30.87;;;;;;;;;;5073572;28;20404;-51
2022/04/26 08:22:41;;;;;;;46.20;28.00;;;;;;;;;;5072433;28;20428;-53
2022/04/26 08:27:52;;;;;;;35.57;24.10;;;;;;;;;;5073395;28;20469;-52
2022/04/26 08:30:18;;;;;;;36.43;22.63;;;;;;;;;;5073293;28;20389;-53
2022/04/26 08:32:48;;;;;;;36.20;23.87;;;;;;;;;;5071639;28;20412;-52
2022/04/26 08:35:16;;;;;;;31.30;20.97;;;;;;;;;;5073258;28;20484;-53
2022/04/26 08:37:45;;;;;;;35.23;22.20;;;;;;;;;;5073257;28;20437;-52
2022/04/26 08:40:11;;;;;;;35.00;23.30;;;;;;;;;;5071255;28;20400;-51
2022/04/26 08:42:45;;;;;;;33.07;21.00;;;;;;;;;;5072307;28;20412;-52
2022/04/26 08:45:14;;;;;;;31.47;21.40;;;;;;;;;;5073105;28;20397;-52
2022/04/26 08:53:11;;;;;;;30.50;21.60;;;;;;;;;;5072748;28;20442;-53
2022/04/26 08:55:45;;;;;;;29.33;20.73;;;;;;;;;;5072742;28;20914;-52
2022/04/26 08:58:12;;;;;;;35.27;20.17;;;;;;;;;;5072595;28;20424;-53
2022/04/26 09:00:42;;;;;;;35.60;22.10;;;;;;;;;;5072597;28;20401;-52
2022/04/26 09:03:08;;;;;;;30.07;21.30;;;;;;;;;;5071671;28;20533;-53
2022/04/26 09:05:34;;;;;;;32.07;21.70;;;;;;;;;;5072572;28;20410;-52
2022/04/26 09:08:02;;;;;;;29.57;21.27;;;;;;;;;;5066098;28;20474;-53
2022/04/26 09:10:29;;;;;;;29.20;19.30;;;;;;;;;;5072501;28;20501;-54
2022/04/26 09:13:09;;;;;;;28.10;20.73;;;;;;;;;;5071711;28;20421;-54
2022/04/26 09:15:39;;;;;;;27.07;20.80;;;;;;;;;;5072559;28;20409;-52
2022/04/26 09:18:26;;;;;;;28.40;20.63;;;;;;;;;;5072315;28;20409;-52
2022/04/26 09:20:53;;;;;;;33.30;21.10;;;;;;;;;;5070577;28;20406;-51
2022/04/26 09:23:21;;;;;;;34.17;20.80;;;;;;;;;;5071961;28;20962;-53
2022/04/26 09:25:48;;;;;;;29.00;19.70;;;;;;;;;;5072238;28;20410;-52
2022/04/26 09:28:21;;;;;;;26.50;18.90;;;;;;;;;;5072276;28;20755;-54
2022/04/26 09:30:47;;;;;;;25.70;18.60;;;;;;;;;;5072010;28;20847;-53
2022/04/26 09:33:30;;;;;;;25.20;17.93;;;;;;;;;;5072150;28;20421;-53
2022/04/26 09:36:00;;;;;;;27.03;18.80;;;;;;;;;;5071492;28;20835;-54
2022/04/26 09:38:25;;;;;;;31.73;19.37;;;;;;;;;;5072233;28;20427;-54
2022/04/26 09:40:51;;;;;;;30.17;20.53;;;;;;;;;;5071528;28;20918;-54
2022/04/26 09:43:19;;;;;;;28.40;19.80;;;;;;;;;;5071878;28;20523;-53
2022/04/26 09:45:56;;;;;;;24.80;17.67;;;;;;;;;;5072150;28;20398;-54
2022/04/26 09:48:29;;;;;;;26.90;18.93;;;;;;;;;;5071939;28;20382;-54
2022/04/26 09:50:57;;;;;;;31.67;20.93;;;;;;;;;;5071184;28;20400;-53
2022/04/26 09:53:23;;;;;;;27.17;22.63;;;;;;;;;;5071900;28;20403;-53
2022/04/26 09:55:50;;;;;;;27.03;20.93;;;;;;;;;;5070950;28;20423;-53
2022/04/26 09:58:19;;;;;;;24.00;20.50;;;;;;;;;;5071810;28;20516;-52
2022/04/26 10:00:49;;;;;;;26.60;20.90;;;;;;;;;;5071006;28;20777;-52
2022/04/26 10:03:16;;;;;;;27.80;21.30;;;;;;;;;;5071006;28;20460;-53
2022/04/26 10:05:43;;;;;;;25.23;20.20;;;;;;;;;;5071724;28;20415;-53
2022/04/26 10:08:09;;;;;;;28.20;22.17;;;;;;;;;;5071785;28;20859;-52
2022/04/26 10:10:35;;;;;;;31.07;21.63;;;;;;;;;;5071612;28;20458;-54
2022/04/26 10:15:46;;;;;;;30.40;24.73;;;;;;;;;;5071723;28;20771;-53
2022/04/26 10:18:26;;;;;;;33.07;23.07;;;;;;;;;;5071828;28;20752;-53
2022/04/26 10:20:52;;;;;;;31.30;21.70;;;;;;;;;;5071087;28;20398;-52
2022/04/26 10:23:18;;;;;;;24.20;20.00;;;;;;;;;;5071546;28;20450;-53
2022/04/26 10:26:04;;;;;;;25.63;19.50;;;;;;;;;;5071449;28;20719;-53
2022/04/26 10:28:32;;;;;;;25.07;17.27;;;;;;;;;;5071452;28;20781;-54
2022/04/26 10:30:59;;;;;;;23.10;17.30;;;;;;;;;;5070901;28;20426;-53
2022/04/26 10:33:40;;;;;;;22.23;18.50;;;;;;;;;;5071499;28;20500;-54
2022/04/26 10:36:21;;;;;;;21.73;18.27;;;;;;;;;;5071526;28;20416;-53
2022/04/26 10:39:07;;;;;;;19.77;16.67;;;;;;;;;;5071421;28;20410;-53
2022/04/26 10:41:37;;;;;;;28.97;21.27;;;;;;;;;;5066895;28;20511;-54
2022/04/26 10:44:16;;;;;;;25.83;18.57;;;;;;;;;;5071363;28;20512;-53
2022/04/26 10:46:43;;;;;;;25.23;16.60;;;;;;;;;;5072922;28;20740;-54
2022/04/26 10:49:24;;;;;;;19.77;15.93;;;;;;;;;;5075506;28;20552;-53
2022/04/26 10:54:48;;;;;;;22.17;15.30;;;;;;;;;;5071307;28;20427;-53
2022/04/26 10:57:18;;;;;;;19.67;16.70;;;;;;;;;;5075121;28;20547;-53
2022/04/26 10:59:56;;;;;;;20.07;17.43;;;;;;;;;;5074915;28;20434;-52
2022/04/26 11:02:23;;;;;;;19.63;16.73;;;;;;;;;;5074169;28;20426;-54
2022/04/26 11:04:57;;;;;;;19.70;17.10;;;;;;;;;;5074918;28;20462;-53
2022/04/26 11:07:25;;;;;;;23.27;16.50;;;;;;;;;;5074949;28;20766;-53
2022/04/26 11:09:53;;;;;;;19.77;15.73;;;;;;;;;;5074896;28;20404;-54
2022/04/26 11:12:24;;;;;;;21.20;16.00;;;;;;;;;;5069789;28;20460;-54
2022/04/26 11:14:51;;;;;;;17.00;15.20;;;;;;;;;;5073518;28;20492;-54
2022/04/26 11:17:17;;;;;;;17.27;14.43;;;;;;;;;;5074753;28;20407;-54
2022/04/26 11:19:49;;;;;;;18.87;16.93;;;;;;;;;;5074651;28;20496;-54
2022/04/26 11:22:15;;;;;;;19.47;16.80;;;;;;;;;;5074067;28;20435;-53
2022/04/26 11:30:37;;;;;;;17.10;14.50;;;;;;;;;;5074486;28;20394;-55
2022/04/26 11:33:04;;;;;;;17.93;14.30;;;;;;;;;;5073721;28;20420;-53
2022/04/26 11:35:31;;;;;;;20.10;14.47;;;;;;;;;;5074543;28;20409;-54
2022/04/26 11:37:59;;;;;;;16.87;14.97;;;;;;;;;;5074419;28;20888;-54
2022/04/26 11:40:28;;;;;;;16.60;14.73;;;;;;;;;;5074377;28;20396;-54
2022/04/26 11:42:56;;;;;;;14.33;12.83;;;;;;;;;;5073435;28;20431;-55
2022/04/26 11:45:23;;;;;;;19.47;13.83;;;;;;;;;;5074338;28;20765;-54
2022/04/26 11:47:49;;;;;;;15.03;12.50;;;;;;;;;;5074222;28;20405;-54
2022/04/26 11:50:20;;;;;;;17.50;13.57;;;;;;;;;;5074052;28;20401;-54
2022/04/26 11:52:46;;;;;;;14.20;12.80;;;;;;;;;;5073200;28;20954;-54
2022/04/26 11:55:20;;;;;;;15.73;14.23;;;;;;;;;;5073765;28;20415;-53
2022/04/26 11:57:46;;;;;;;12.50;11.30;;;;;;;;;;5073180;28;20747;-52
2022/04/26 12:00:13;;;;;;;14.20;12.70;;;;;;;;;;5073796;28;20400;-52
2022/04/26 12:02:39;;;;;;;17.47;13.40;;;;;;;;;;5073100;28;20424;-52
2022/04/26 12:05:07;;;;;;;15.50;13.40;;;;;;;;;;5073957;28;20470;-53
2022/04/26 12:07:33;;;;;;;17.67;13.03;;;;;;;;;;5073791;28;20399;-52
2022/04/26 12:10:00;;;;;;;12.93;11.63;;;;;;;;;;5073744;28;20899;-52
2022/04/26 12:12:27;;;;;;;14.47;12.43;;;;;;;;;;5073077;28;20415;-53
2022/04/26 12:14:54;;;;;;;15.50;12.67;;;;;;;;;;5073815;28;20428;-53
2022/04/26 12:17:27;;;;;;;14.03;12.60;;;;;;;;;;5073580;28;20491;-52
2022/04/26 12:19:53;;;;;;;15.20;12.47;;;;;;;;;;5072708;28;20401;-53
2022/04/26 12:22:19;;;;;;;12.70;11.40;;;;;;;;;;5072734;28;20426;-53
2022/04/26 12:24:46;;;;;;;15.23;12.10;;;;;;;;;;5072690;28;20558;-52
2022/04/26 12:27:13;;;;;;;13.73;12.40;;;;;;;;;;5073310;28;20466;-52
2022/04/26 12:29:40;;;;;;;14.93;11.87;;;;;;;;;;5073551;28;20394;-53
2022/04/26 12:32:11;;;;;;;15.17;12.43;;;;;;;;;;5072450;28;20430;-53
2022/04/26 12:34:37;;;;;;;14.50;13.20;;;;;;;;;;5073081;28;20778;-52
2022/04/26 12:37:07;;;;;;;15.43;13.60;;;;;;;;;;5073258;28;20415;-53
2022/04/26 12:39:38;;;;;;;18.40;16.20;;;;;;;;;;5073301;28;20819;-53
2022/04/26 12:42:05;;;;;;;17.30;14.83;;;;;;;;;;5072599;28;20439;-52
2022/04/26 12:44:31;;;;;;;17.80;16.10;;;;;;;;;;5067543;28;20461;-52
2022/04/26 12:52:47;;;;;;;20.77;15.37;;;;;;;;;;5072068;28;20426;-52
2022/04/26 12:55:13;;;;;;;16.77;15.17;;;;;;;;;;5072898;28;20881;-53
2022/04/26 12:57:48;;;;;;;18.13;15.33;;;;;;;;;;5072953;28;20404;-51
2022/04/26 13:00:14;;;;;;;17.30;15.47;;;;;;;;;;5073432;28;20407;-51
2022/04/26 13:02:40;;;;;;;17.93;15.10;;;;;;;;;;5071893;28;20475;-51
2022/04/26 13:05:06;;;;;;;19.60;14.57;;;;;;;;;;5072585;28;20556;-52
2022/04/26 13:07:32;;;;;;;14.17;12.67;;;;;;;;;;5072646;28;20402;-52
2022/04/26 13:09:58;;;;;;;17.30;13.33;;;;;;;;;;5071599;28;20398;-52
2022/04/26 13:12:24;;;;;;;13.57;11.60;;;;;;;;;;5071744;28;20413;-52
2022/04/26 13:14:50;;;;;;;15.97;13.20;;;;;;;;;;5072608;28;20543;-52
2022/04/26 13:17:20;;;;;;;14.60;13.10;;;;;;;;;;5072503;28;20414;-52
2022/04/26 13:19:47;;;;;;;21.30;14.60;;;;;;;;;;5072448;28;20379;-52
2022/04/26 13:22:15;;;;;;;17.87;15.93;;;;;;;;;;5071673;28;20455;-52
2022/04/26 13:24:41;;;;;;;24.40;15.97;;;;;;;;;;5072334;28;20452;-52
2022/04/26 13:27:07;;;;;;;19.50;14.80;;;;;;;;;;5072310;28;20494;-53
2022/04/26 13:29:33;;;;;;;16.63;14.63;;;;;;;;;;5072345;28;20395;-51
2022/04/26 13:32:00;;;;;;;15.77;14.07;;;;;;;;;;5071650;28;20825;-52
2022/04/26 13:34:26;;;;;;;14.90;12.70;;;;;;;;;;5072235;28;20405;-52
2022/04/26 13:36:52;;;;;;;12.83;11.53;;;;;;;;;;5072247;28;20411;-52
2022/04/26 13:39:18;;;;;;;11.80;10.60;;;;;;;;;;5072009;28;20399;-52
2022/04/26 13:41:44;;;;;;;15.07;12.13;;;;;;;;;;5071431;28;20429;-52
2022/04/26 13:44:10;;;;;;;13.07;10.93;;;;;;;;;;5072024;28;20444;-53
2022/04/26 13:46:36;;;;;;;14.03;12.17;;;;;;;;;;5072140;28;20446;-53
2022/04/26 13:49:03;;;;;;;11.83;10.40;;;;;;;;;;5072029;28;20400;-52
2022/04/26 13:51:29;;;;;;;16.63;11.87;;;;;;;;;;5071464;28;20428;-52
2022/04/26 13:53:55;;;;;;;12.40;10.87;;;;;;;;;;5071985;28;20406;-52
2022/04/26 13:56:21;;;;;;;14.37;11.60;;;;;;;;;;5071932;28;20394;-52
2022/04/26 13:58:47;;;;;;;13.50;12.20;;;;;;;;;;5072061;28;20398;-52
2022/04/26 14:01:13;;;;;;;13.77;11.70;;;;;;;;;;5071265;28;20408;-52
2022/04/26 14:03:39;;;;;;;15.00;12.80;;;;;;;;;;5071823;28;20427;-52
2022/04/26 14:06:05;;;;;;;13.23;11.83;;;;;;;;;;5071830;28;20487;-52
2022/04/26 14:08:31;;;;;;;13.70;12.07;;;;;;;;;;5071685;28;20363;-53
2022/04/26 14:10:58;;;;;;;13.57;12.17;;;;;;;;;;5071160;28;20458;-51
2022/04/26 14:13:24;;;;;;;17.40;11.83;;;;;;;;;;5071900;28;20776;-52
2022/04/26 14:24:05;;;;;;;12.00;10.80;;;;;;;;;;5075789;28;20493;-53
2022/04/26 14:26:31;;;;;;;17.47;10.97;;;;;;;;;;5074164;28;20436;-51
2022/04/26 14:28:57;;;;;;;13.13;11.77;;;;;;;;;;5075617;28;20784;-52
2022/04/26 14:31:23;;;;;;;12.63;10.97;;;;;;;;;;5074952;28;20395;-52
2022/04/26 14:33:49;;;;;;;12.83;11.17;;;;;;;;;;5075511;28;20960;-51
2022/04/26 14:36:14;;;;;;;16.07;12.23;;;;;;;;;;5075803;28;20380;-52
2022/04/26 14:38:40;;;;;;;13.73;12.23;;;;;;;;;;5075410;28;20449;-51
2022/04/26 14:41:06;;;;;;;14.83;12.97;;;;;;;;;;5074819;28;20407;-52
2022/04/26 14:43:32;;;;;;;15.47;13.20;;;;;;;;;;5075396;28;20513;-51
2022/04/26 14:45:59;;;;;;;18.90;14.30;;;;;;;;;;5075380;28;20401;-52
2022/04/26 14:48:29;;;;;;;19.53;15.33;;;;;;;;;;5075185;28;20412;-52
2022/04/26 14:50:55;;;;;;;25.83;15.93;;;;;;;;;;5074251;28;20866;-52
2022/04/26 14:53:21;;;;;;;17.10;14.63;;;;;;;;;;5075055;28;20403;-52
2022/04/26 14:55:47;;;;;;;17.47;15.70;;;;;;;;;;5075717;28;20367;-51
2022/04/26 14:58:14;;;;;;;18.40;15.40;;;;;;;;;;5075280;28;20404;-51
2022/04/26 15:00:40;;;;;;;18.10;16.20;;;;;;;;;;5074758;28;20414;-52
2022/04/26 15:03:06;;;;;;;22.90;17.27;;;;;;;;;;5074526;28;20723;-51
2022/04/26 15:05:32;;;;;;;19.87;17.77;;;;;;;;;;5072921;28;20491;-51
2022/04/26 15:10:43;;;;;;;32.13;20.10;;;;;;;;;;5073833;28;20945;-52
2022/04/26 15:18:39;;;;;;;7.40;6.80;;;;;;;;;;5074816;28;20373;-52
2022/04/26 15:21:08;;;;;;;9.50;6.83;;;;;;;;;;5073967;28;20458;-51
2022/04/26 15:23:35;;;;;;;9.10;6.13;;;;;;;;;;5074413;28;20485;-52
2022/04/26 15:26:03;;;;;;;7.20;6.50;;;;;;;;;;5073894;28;20818;-52
2022/04/26 15:28:30;;;;;;;7.57;5.37;;;;;;;;;;5074038;28;20489;-51
2022/04/26 15:30:56;;;;;;;8.87;6.90;;;;;;;;;;5073407;28;20409;-51
2022/04/26 15:33:23;;;;;;;7.97;7.20;;;;;;;;;;5072089;28;20425;-51
2022/04/26 15:35:51;;;;;;;6.80;6.10;;;;;;;;;;5073300;28;20776;-52
2022/04/26 15:38:17;;;;;;;8.00;7.20;;;;;;;;;;5073938;28;20392;-51
2022/04/26 15:40:46;;;;;;;8.60;7.10;;;;;;;;;;5072421;28;20878;-52
2022/04/26 15:43:13;;;;;;;8.53;7.60;;;;;;;;;;5074356;28;20561;-52
2022/04/26 15:45:39;;;;;;;8.60;7.80;;;;;;;;;;5074293;28;20437;-52
2022/04/26 15:48:05;;;;;;;10.03;8.83;;;;;;;;;;5074289;28;20445;-52
2022/04/26 15:50:31;;;;;;;9.70;8.80;;;;;;;;;;5074570;28;20528;-52
2022/04/26 15:52:57;;;;;;;10.73;9.63;;;;;;;;;;5073190;28;20535;-51
2022/04/26 15:55:23;;;;;;;10.97;9.87;;;;;;;;;;5074078;28;20498;-52
2022/04/26 15:57:54;;;;;;;12.40;10.47;;;;;;;;;;5074017;28;20404;-51
2022/04/26 16:00:20;;;;;;;12.40;10.90;;;;;;;;;;5074020;28;20405;-52
2022/04/26 16:02:51;;;;;;;12.93;11.57;;;;;;;;;;5073077;28;20928;-52
2022/04/26 16:05:18;;;;;;;10.57;9.50;;;;;;;;;;5073767;28;20935;-52
2022/04/26 16:07:44;;;;;;;12.90;10.47;;;;;;;;;;5073771;28;20458;-52
2022/04/26 16:21:08;;;;;;;12.87;10.43;;;;;;;;;;5073043;28;20400;-51
2022/04/26 16:23:34;;;;;;;11.10;10.07;;;;;;;;;;5073495;28;20449;-52
2022/04/26 16:26:05;;;;;;;11.10;10.00;;;;;;;;;;5073495;28;20393;-52
2022/04/26 16:28:32;;;;;;;12.50;11.20;;;;;;;;;;5073476;28;20391;-51
2022/04/26 16:30:58;;;;;;;14.33;12.10;;;;;;;;;;5072963;28;20413;-52
2022/04/26 16:33:24;;;;;;;11.40;10.13;;;;;;;;;;5073215;28;20501;-52
2022/04/26 16:35:50;;;;;;;13.77;12.27;;;;;;;;;;5073305;28;20448;-51
2022/04/26 16:38:17;;;;;;;14.17;12.70;;;;;;;;;;5073665;28;20869;-52
2022/04/26 16:40:44;;;;;;;15.00;11.90;;;;;;;;;;5072879;28;20400;-52
2022/04/26 16:43:11;;;;;;;23.63;12.67;;;;;;;;;;5073000;28;20525;-52
2022/04/26 16:45:37;;;;;;;20.70;15.23;;;;;;;;;;5072820;28;20407;-52
2022/04/26 16:48:03;;;;;;;15.70;14.00;;;;;;;;;;5073043;28;20401;-52
2022/04/26 16:50:29;;;;;;;21.77;15.23;;;;;;;;;;5073259;28;20404;-52
2022/04/26 16:52:57;;;;;;;20.97;16.30;;;;;;;;;;5072246;28;20445;-51
2022/04/26 16:55:23;;;;;;;16.47;13.83;;;;;;;;;;5072803;28;20438;-51
2022/04/26 16:57:49;;;;;;;19.77;15.63;;;;;;;;;;5073098;28;20397;-52
2022/04/26 17:00:15;;;;;;;20.47;15.30;;;;;;;;;;5072759;28;20398;-52
2022/04/26 17:02:42;;;;;;;19.20;14.77;;;;;;;;;;5072205;28;20788;-51
2022/04/26 17:05:08;;;;;;;17.77;15.10;;;;;;;;;;5072531;28;20543;-52
2022/04/26 17:07:35;;;;;;;19.20;15.20;;;;;;;;;;5072658;28;20427;-51
2022/04/26 17:10:01;;;;;;;22.13;15.00;;;;;;;;;;5072950;28;20458;-51
2022/04/26 17:12:26;;;;;;;17.30;14.50;;;;;;;;;;5071907;28;20420;-52
2022/04/26 17:14:54;;;;;;;23.33;14.93;;;;;;;;;;5072478;28;20444;-51
2022/04/26 17:17:21;;;;;;;20.13;16.47;;;;;;;;;;5071409;28;20430;-52
2022/04/26 17:19:47;;;;;;;21.40;16.10;;;;;;;;;;5072228;28;20773;-52
2022/04/26 17:22:13;;;;;;;19.20;14.67;;;;;;;;;;5066490;28;20447;-52
2022/04/26 17:27:24;;;;;;;17.23;15.40;;;;;;;;;;5072087;28;20427;-52
2022/04/26 17:29:50;;;;;;;22.67;16.47;;;;;;;;;;5071378;28;20869;-52
2022/04/26 17:32:16;;;;;;;20.93;16.00;;;;;;;;;;5070920;28;20429;-51
2022/04/26 17:34:43;;;;;;;21.53;15.10;;;;;;;;;;5071316;28;20512;-52
2022/04/26 17:37:11;;;;;;;18.77;16.10;;;;;;;;;;5071218;28;20408;-51
2022/04/26 17:39:38;;;;;;;18.60;15.80;;;;;;;;;;5071765;28;20403;-52
2022/04/26 17:42:06;;;;;;;19.40;15.00;;;;;;;;;;5070954;28;20433;-51
2022/04/26 17:44:33;;;;;;;19.50;13.10;;;;;;;;;;5071755;28;20544;-52
2022/04/26 17:47:00;;;;;;;208.87;81.97;;;;;;;;;;5071508;28;20504;-52
2022/04/26 17:49:26;;;;;;;225.87;111.40;;;;;;;;;;5071802;28;20398;-52
2022/04/26 17:51:53;;;;;;;70.73;42.20;;;;;;;;;;5069671;28;20838;-51
2022/04/26 17:57:04;;;;;;;36.10;21.87;;;;;;;;;;5071091;28;20467;-51
2022/04/26 17:59:30;;;;;;;28.53;18.60;;;;;;;;;;5071643;28;20424;-51
2022/04/26 18:01:56;;;;;;;24.37;17.80;;;;;;;;;;5070859;28;20428;-51
2022/04/26 18:04:22;;;;;;;20.70;16.80;;;;;;;;;;5072005;28;20455;-52
2022/04/26 18:06:49;;;;;;;23.17;17.03;;;;;;;;;;5071554;28;20506;-51
2022/04/26 18:09:15;;;;;;;23.33;17.37;;;;;;;;;;5071673;28;20406;-51
2022/04/26 18:11:41;;;;;;;20.90;15.30;;;;;;;;;;5071119;28;20431;-51
2022/04/26 18:14:07;;;;;;;18.63;15.70;;;;;;;;;;5071765;28;20419;-51
2022/04/26 18:16:34;;;;;;;20.47;16.03;;;;;;;;;;5071453;28;20439;-51
2022/04/26 18:19:03;;;;;;;21.77;18.20;;;;;;;;;;5070023;28;20406;-52
2022/04/26 18:21:32;;;;;;;27.40;22.00;;;;;;;;;;5070822;28;20449;-51
2022/04/26 18:23:59;;;;;;;32.70;23.93;;;;;;;;;;5071673;28;20451;-51
2022/04/26 18:26:25;;;;;;;32.07;23.47;;;;;;;;;;5071517;28;20908;-51
2022/04/26 18:28:53;;;;;;;27.37;20.03;;;;;;;;;;5071827;28;20774;-53
2022/04/26 18:31:20;;;;;;;19.70;16.37;;;;;;;;;;5070333;28;20423;-52
2022/04/26 18:33:46;;;;;;;30.50;23.13;;;;;;;;;;5071529;28;20409;-51
2022/04/26 18:36:13;;;;;;;36.93;28.83;;;;;;;;;;5070613;28;20420;-51
2022/04/26 18:38:44;;;;;;;57.23;40.50;;;;;;;;;;5065454;28;20908;-52
2022/04/26 18:41:10;;;;;;;62.57;44.00;;;;;;;;;;5070991;28;20400;-49
2022/04/26 18:43:36;;;;;;;56.23;44.03;;;;;;;;;;5071353;28;20501;-51
2022/04/26 18:46:03;;;;;;;40.97;34.47;;;;;;;;;;5071759;28;20401;-49
2022/04/26 18:48:29;;;;;;;77.63;55.00;;;;;;;;;;5071370;28;20396;-50
2022/04/26 18:50:55;;;;;;;29.57;24.60;;;;;;;;;;5070593;28;20393;-54
2022/04/26 18:53:21;;;;;;;29.10;21.93;;;;;;;;;;5071048;28;20922;-52
2022/04/26 18:55:49;;;;;;;27.43;21.33;;;;;;;;;;5070988;28;20413;-51
2022/04/26 18:58:17;;;;;;;27.67;22.47;;;;;;;;;;5071013;28;20877;-51
2022/04/26 19:00:43;;;;;;;40.23;36.03;;;;;;;;;;5070917;28;20752;-52